Time;durP1;ratioP1;P1;durP2;ratioP2;P2;SDS_P1;SDS_P2;PMS_P1;PMS_P2;Temp;Humidity;BMP_temperature;BMP_pressure;BME280_temperature;BME280_humidity;BME280_pressure;Samples;Min_cycle;Max_cycle;Signal;HPM_P1;HPM_P2
2021/04/16 00:00:48;;;;;;;2.58;1.35;;;;;;;;;;4994608;28;20046;-82
2021/04/16 00:03:14;;;;;;;4.43;1.35;;;;;;;;;;4994324;28;20048;-75
2021/04/16 00:05:41;;;;;;;3.05;1.40;;;;;;;;;;4977082;28;20109;-75
2021/04/16 00:08:08;;;;;;;3.85;1.67;;;;;;;;;;4976751;28;20512;-82
2021/04/16 00:10:48;;;;;;;5.30;1.85;;;;;;;;;;4994014;28;20114;-80
2021/04/16 00:13:15;;;;;;;3.20;1.50;;;;;;;;;;4992711;28;20041;-80
2021/04/16 00:15:43;;;;;;;3.05;1.58;;;;;;;;;;4976815;28;20057;-77
2021/04/16 00:18:10;;;;;;;3.28;1.65;;;;;;;;;;4994168;28;20483;-75
2021/04/16 00:20:36;;;;;;;3.13;1.45;;;;;;;;;;4993790;28;20141;-80
2021/04/16 00:23:03;;;;;;;2.83;1.42;;;;;;;;;;4994056;28;20046;-74
2021/04/16 00:25:30;;;;;;;3.20;1.80;;;;;;;;;;4994029;28;20053;-78
2021/04/16 00:27:56;;;;;;;8.65;1.60;;;;;;;;;;4994150;28;20037;-78
2021/04/16 00:30:43;;;;;;;4.43;1.75;;;;;;;;;;4993690;28;20018;-75
2021/04/16 00:33:09;;;;;;;3.95;1.65;;;;;;;;;;4975979;28;20034;-74
2021/04/16 00:35:36;;;;;;;3.53;1.52;;;;;;;;;;4993497;28;20137;-78
2021/04/16 00:38:03;;;;;;;5.97;1.98;;;;;;;;;;4993717;28;20027;-78
2021/04/16 00:40:33;;;;;;;2.88;1.60;;;;;;;;;;4975989;28;20053;-81
2021/04/16 00:42:59;;;;;;;2.97;1.70;;;;;;;;;;4987934;28;20066;-78
2021/04/16 00:45:27;;;;;;;4.72;1.88;;;;;;;;;;4993114;28;20015;-81
2021/04/16 00:47:55;;;;;;;2.90;1.27;;;;;;;;;;4992913;28;20023;-78
2021/04/16 00:50:27;;;;;;;3.30;1.80;;;;;;;;;;4993456;28;20037;-80
2021/04/16 00:52:53;;;;;;;6.45;1.83;;;;;;;;;;4976108;28;20026;-79
2021/04/16 00:55:22;;;;;;;2.40;1.40;;;;;;;;;;4993605;28;20046;-79
2021/04/16 00:57:48;;;;;;;2.85;1.58;;;;;;;;;;4975855;28;20082;-80
2021/04/16 01:00:15;;;;;;;3.33;1.70;;;;;;;;;;4975789;28;20037;-81
2021/04/16 01:02:41;;;;;;;4.13;1.73;;;;;;;;;;4975949;28;20432;-75
2021/04/16 01:05:08;;;;;;;3.70;1.80;;;;;;;;;;4991639;28;20026;-81
2021/04/16 01:07:34;;;;;;;3.42;2.10;;;;;;;;;;4993177;28;20031;-80
2021/04/16 01:10:00;;;;;;;4.55;1.77;;;;;;;;;;4975555;28;20026;-76
2021/04/16 01:12:26;;;;;;;3.13;1.88;;;;;;;;;;4975648;28;20027;-78
2021/04/16 01:15:03;;;;;;;4.60;1.90;;;;;;;;;;4975897;28;20154;-82
2021/04/16 01:17:29;;;;;;;4.93;1.70;;;;;;;;;;4975816;28;20034;-80
2021/04/16 01:20:18;;;;;;;4.53;1.83;;;;;;;;;;4993100;28;20042;-81
2021/04/16 01:22:44;;;;;;;3.00;1.60;;;;;;;;;;4972496;28;20046;-80
2021/04/16 01:25:12;;;;;;;2.50;1.42;;;;;;;;;;4973590;28;20015;-80
2021/04/16 01:27:38;;;;;;;3.28;1.95;;;;;;;;;;4973759;28;20023;-81
2021/04/16 01:30:09;;;;;;;3.78;1.67;;;;;;;;;;4973368;28;20023;-81
2021/04/16 01:32:36;;;;;;;2.90;1.20;;;;;;;;;;4972187;28;20019;-81
2021/04/16 01:35:05;;;;;;;3.00;1.80;;;;;;;;;;4973651;28;20018;-81
2021/04/16 01:37:31;;;;;;;3.25;1.70;;;;;;;;;;4973577;28;20023;-81
2021/04/16 01:39:57;;;;;;;2.75;1.67;;;;;;;;;;4972327;28;20042;-81
2021/04/16 01:42:23;;;;;;;5.95;1.90;;;;;;;;;;4973130;28;20130;-78
2021/04/16 01:44:50;;;;;;;3.35;2.10;;;;;;;;;;4973419;28;20027;-78
2021/04/16 01:47:16;;;;;;;3.13;1.83;;;;;;;;;;4975323;28;20023;-79
2021/04/16 01:49:45;;;;;;;3.95;1.70;;;;;;;;;;4977632;28;20030;-82
2021/04/16 01:52:13;;;;;;;2.63;1.50;;;;;;;;;;4977495;28;20030;-79
2021/04/16 01:54:41;;;;;;;3.00;1.80;;;;;;;;;;4977333;28;20031;-77
2021/04/16 01:57:09;;;;;;;3.30;2.08;;;;;;;;;;4977388;28;20034;-77
2021/04/16 01:59:37;;;;;;;3.72;1.80;;;;;;;;;;4976126;28;20038;-80
2021/04/16 02:02:05;;;;;;;3.10;1.60;;;;;;;;;;4977284;28;20106;-82
2021/04/16 02:04:31;;;;;;;2.60;1.67;;;;;;;;;;4976860;28;20106;-74
2021/04/16 02:06:58;;;;;;;5.10;1.77;;;;;;;;;;4977381;28;20022;-77
2021/04/16 02:09:25;;;;;;;2.70;1.63;;;;;;;;;;4974933;28;20074;-81
2021/04/16 02:11:52;;;;;;;3.03;1.73;;;;;;;;;;4976593;28;20069;-77
2021/04/16 02:14:20;;;;;;;2.80;1.58;;;;;;;;;;4975428;28;20038;-79
2021/04/16 02:16:48;;;;;;;3.10;1.27;;;;;;;;;;4975369;28;20210;-81
2021/04/16 02:19:14;;;;;;;3.47;2.15;;;;;;;;;;4976831;28;20113;-81
2021/04/16 02:21:42;;;;;;;3.10;1.83;;;;;;;;;;4981266;28;20042;-75
2021/04/16 02:24:08;;;;;;;2.75;1.60;;;;;;;;;;4996587;28;20061;-81
2021/04/16 02:26:35;;;;;;;2.83;1.70;;;;;;;;;;4979090;28;20034;-77
2021/04/16 02:29:02;;;;;;;3.25;1.70;;;;;;;;;;4978873;28;20490;-77
2021/04/16 02:31:28;;;;;;;3.22;1.85;;;;;;;;;;4978812;28;20045;-80
2021/04/16 02:33:54;;;;;;;3.33;1.92;;;;;;;;;;4996316;28;20035;-81
2021/04/16 02:36:24;;;;;;;3.72;2.00;;;;;;;;;;4978598;28;20076;-74
2021/04/16 02:38:50;;;;;;;4.75;1.85;;;;;;;;;;4996139;28;20033;-76
2021/04/16 02:41:16;;;;;;;3.45;1.92;;;;;;;;;;4978555;28;20065;-80
2021/04/16 02:43:42;;;;;;;3.10;1.75;;;;;;;;;;4992787;28;20022;-75
2021/04/16 02:46:08;;;;;;;3.08;1.90;;;;;;;;;;4978619;28;20034;-81
2021/04/16 02:48:34;;;;;;;4.18;2.13;;;;;;;;;;4995889;28;20475;-75
2021/04/16 02:51:00;;;;;;;3.17;1.70;;;;;;;;;;4996443;28;20475;-77
2021/04/16 02:53:26;;;;;;;3.05;1.85;;;;;;;;;;4995165;28;20034;-78
2021/04/16 02:55:52;;;;;;;2.65;1.60;;;;;;;;;;4995532;28;20027;-75
2021/04/16 02:58:18;;;;;;;3.28;1.50;;;;;;;;;;4994478;28;20026;-80
2021/04/16 03:00:45;;;;;;;3.05;1.85;;;;;;;;;;4995346;28;20035;-82
2021/04/16 03:03:11;;;;;;;3.33;2.00;;;;;;;;;;4995293;28;20023;-81
2021/04/16 03:05:37;;;;;;;3.45;1.80;;;;;;;;;;4992945;28;20510;-75
2021/04/16 03:08:03;;;;;;;5.60;2.30;;;;;;;;;;4994656;28;20746;-79
2021/04/16 03:10:31;;;;;;;2.70;1.67;;;;;;;;;;4977109;28;20046;-78
2021/04/16 03:12:57;;;;;;;3.65;1.95;;;;;;;;;;4995418;28;20045;-80
2021/04/16 03:15:23;;;;;;;3.97;2.10;;;;;;;;;;4994882;28;20030;-75
2021/04/16 03:17:49;;;;;;;3.70;2.20;;;;;;;;;;4977720;28;20030;-82
2021/04/16 03:20:17;;;;;;;3.80;1.90;;;;;;;;;;4977862;28;20034;-81
2021/04/16 03:22:43;;;;;;;4.50;2.08;;;;;;;;;;4995065;28;20054;-81
2021/04/16 03:25:09;;;;;;;3.88;2.00;;;;;;;;;;4995222;28;20040;-83
2021/04/16 03:27:36;;;;;;;3.15;1.75;;;;;;;;;;4977772;28;20089;-76
2021/04/16 03:30:03;;;;;;;4.45;2.25;;;;;;;;;;4977777;28;20027;-77
2021/04/16 03:32:29;;;;;;;4.28;2.25;;;;;;;;;;4976867;28;20049;-82
2021/04/16 03:34:55;;;;;;;3.50;2.20;;;;;;;;;;4977470;28;20032;-79
2021/04/16 03:37:21;;;;;;;3.85;1.88;;;;;;;;;;4994805;28;20494;-75
2021/04/16 03:39:47;;;;;;;3.17;1.77;;;;;;;;;;4995021;28;20041;-75
2021/04/16 03:42:13;;;;;;;3.03;1.88;;;;;;;;;;4994860;28;20022;-76
2021/04/16 03:44:39;;;;;;;3.80;2.13;;;;;;;;;;4977323;28;20072;-76
2021/04/16 03:47:06;;;;;;;3.80;2.25;;;;;;;;;;4977283;28;20022;-81
2021/04/16 03:49:32;;;;;;;3.97;2.13;;;;;;;;;;4977244;28;20502;-78
2021/04/16 03:51:59;;;;;;;4.63;1.85;;;;;;;;;;4994596;28;20034;-82
2021/04/16 03:54:27;;;;;;;3.55;1.90;;;;;;;;;;4994625;28;20018;-82
2021/04/16 03:56:53;;;;;;;3.42;2.05;;;;;;;;;;4994644;28;20117;-81
2021/04/16 03:59:20;;;;;;;3.50;1.90;;;;;;;;;;4977054;28;20076;-76
2021/04/16 04:01:46;;;;;;;3.00;1.80;;;;;;;;;;4994635;28;20031;-82
2021/04/16 04:04:13;;;;;;;3.17;1.90;;;;;;;;;;4977261;28;20444;-78
2021/04/16 04:06:39;;;;;;;3.38;1.90;;;;;;;;;;4994678;28;20026;-82
2021/04/16 04:09:05;;;;;;;3.28;1.90;;;;;;;;;;4976685;28;20185;-79
2021/04/16 04:11:32;;;;;;;3.40;1.80;;;;;;;;;;4977101;28;20112;-79
2021/04/16 04:13:59;;;;;;;3.90;2.00;;;;;;;;;;4994358;28;20097;-81
2021/04/16 04:16:26;;;;;;;2.97;1.80;;;;;;;;;;4994436;28;20110;-80
2021/04/16 04:18:52;;;;;;;3.72;1.90;;;;;;;;;;4993908;28;20018;-75
2021/04/16 04:21:18;;;;;;;3.65;2.28;;;;;;;;;;4976293;28;20057;-74
2021/04/16 04:23:44;;;;;;;4.95;2.13;;;;;;;;;;4976866;28;20057;-81
2021/04/16 04:26:10;;;;;;;3.60;1.80;;;;;;;;;;4993829;28;20026;-81
2021/04/16 04:28:36;;;;;;;3.85;2.10;;;;;;;;;;4976502;28;20093;-80
2021/04/16 04:31:02;;;;;;;4.10;2.38;;;;;;;;;;4976643;28;20023;-80
2021/04/16 04:33:28;;;;;;;6.55;1.90;;;;;;;;;;4976556;28;20069;-77
2021/04/16 04:35:54;;;;;;;3.42;1.75;;;;;;;;;;4993602;28;20031;-81
2021/04/16 04:38:21;;;;;;;4.53;2.10;;;;;;;;;;4976281;28;20030;-78
2021/04/16 04:40:47;;;;;;;3.70;1.88;;;;;;;;;;4976506;28;20172;-81
2021/04/16 04:43:13;;;;;;;3.00;1.67;;;;;;;;;;4991516;28;20680;-76
2021/04/16 04:45:39;;;;;;;3.10;1.60;;;;;;;;;;4991929;28;20039;-80
2021/04/16 04:48:06;;;;;;;3.55;1.70;;;;;;;;;;4975098;28;20062;-80
2021/04/16 04:50:32;;;;;;;2.90;1.60;;;;;;;;;;4974539;28;20558;-79
2021/04/16 04:52:58;;;;;;;4.13;1.88;;;;;;;;;;4993414;28;20085;-74
2021/04/16 04:55:28;;;;;;;2.92;1.70;;;;;;;;;;4993312;28;20105;-76
2021/04/16 04:57:55;;;;;;;4.32;2.25;;;;;;;;;;4973916;28;20404;-80
2021/04/16 05:00:21;;;;;;;5.22;1.77;;;;;;;;;;4972114;28;20041;-79
2021/04/16 05:02:48;;;;;;;2.88;1.63;;;;;;;;;;4971357;28;20563;-77
2021/04/16 05:05:14;;;;;;;3.05;1.70;;;;;;;;;;4973149;28;20059;-76
2021/04/16 05:07:40;;;;;;;4.65;1.60;;;;;;;;;;4972652;28;20026;-79
2021/04/16 05:10:07;;;;;;;4.38;2.03;;;;;;;;;;4973653;28;20058;-78
2021/04/16 05:12:33;;;;;;;2.70;1.55;;;;;;;;;;4972283;28;20620;-77
2021/04/16 05:14:59;;;;;;;3.70;1.98;;;;;;;;;;4972597;28;20023;-76
2021/04/16 05:17:25;;;;;;;3.38;1.90;;;;;;;;;;4972279;28;20026;-80
2021/04/16 05:19:51;;;;;;;2.90;1.60;;;;;;;;;;4971875;28;20047;-76
2021/04/16 05:22:17;;;;;;;6.35;2.00;;;;;;;;;;4972759;28;20108;-77
2021/04/16 05:24:43;;;;;;;4.28;2.08;;;;;;;;;;4972416;28;20023;-79
2021/04/16 05:27:11;;;;;;;3.05;1.50;;;;;;;;;;4973501;28;20023;-78
2021/04/16 05:29:37;;;;;;;3.17;1.70;;;;;;;;;;4972334;28;20072;-78
2021/04/16 05:32:04;;;;;;;3.63;1.70;;;;;;;;;;4991174;28;20146;-80
2021/04/16 05:34:30;;;;;;;2.60;1.23;;;;;;;;;;4992545;28;20022;-79
2021/04/16 05:36:56;;;;;;;6.53;1.70;;;;;;;;;;4974823;28;20021;-77
2021/04/16 05:39:23;;;;;;;4.00;1.60;;;;;;;;;;4972714;28;20034;-72
2021/04/16 05:41:49;;;;;;;4.10;1.67;;;;;;;;;;4990989;28;20049;-72
2021/04/16 05:44:15;;;;;;;6.80;1.92;;;;;;;;;;4974295;28;20019;-69
2021/04/16 05:46:41;;;;;;;7.03;1.80;;;;;;;;;;4991784;28;20582;-71
2021/04/16 05:49:07;;;;;;;9.57;2.10;;;;;;;;;;4992025;28;20049;-74
2021/04/16 05:51:34;;;;;;;6.10;2.10;;;;;;;;;;4973940;28;20715;-73
2021/04/16 05:54:00;;;;;;;8.98;2.08;;;;;;;;;;4974352;28;20531;-73
2021/04/16 05:56:26;;;;;;;8.02;1.80;;;;;;;;;;4986611;28;20046;-71
2021/04/16 05:58:52;;;;;;;5.07;1.40;;;;;;;;;;4990011;28;20026;-70
2021/04/16 06:01:18;;;;;;;4.20;1.58;;;;;;;;;;4991296;28;20030;-70
2021/04/16 06:03:45;;;;;;;6.68;1.52;;;;;;;;;;4990865;28;20018;-71
2021/04/16 06:06:11;;;;;;;3.88;1.65;;;;;;;;;;4990887;28;20490;-71
2021/04/16 06:08:38;;;;;;;3.72;1.27;;;;;;;;;;4973326;28;20058;-71
2021/04/16 06:11:04;;;;;;;5.28;1.88;;;;;;;;;;4973544;28;20076;-72
2021/04/16 06:13:31;;;;;;;5.32;1.63;;;;;;;;;;4990615;28;20076;-73
2021/04/16 06:15:58;;;;;;;7.45;1.70;;;;;;;;;;4990746;28;20019;-71
2021/04/16 06:18:25;;;;;;;5.55;1.63;;;;;;;;;;4971367;28;20150;-70
2021/04/16 06:20:51;;;;;;;8.43;1.50;;;;;;;;;;4974298;28;20038;-80
2021/04/16 06:23:17;;;;;;;3.22;1.30;;;;;;;;;;4991732;28;20053;-75
2021/04/16 06:25:43;;;;;;;2.85;1.30;;;;;;;;;;4973349;28;20022;-75
2021/04/16 06:28:10;;;;;;;7.32;1.85;;;;;;;;;;4973702;28;20510;-74
2021/04/16 06:30:36;;;;;;;4.30;1.35;;;;;;;;;;4990495;28;20034;-72
2021/04/16 06:33:24;;;;;;;9.73;1.52;;;;;;;;;;4973202;28;20026;-85
2021/04/16 06:35:52;;;;;;;3.58;1.40;;;;;;;;;;4993526;28;20018;-76
2021/04/16 06:38:19;;;;;;;6.80;1.73;;;;;;;;;;4976945;28;20042;-79
2021/04/16 06:40:48;;;;;;;2.10;1.10;;;;;;;;;;4993285;28;20487;-77
2021/04/16 06:43:14;;;;;;;4.35;1.23;;;;;;;;;;4993950;28;20034;-73
2021/04/16 06:45:40;;;;;;;3.95;1.60;;;;;;;;;;4994567;28;20022;-75
2021/04/16 06:48:07;;;;;;;3.15;1.65;;;;;;;;;;4994595;28;20022;-73
2021/04/16 06:50:36;;;;;;;3.10;1.50;;;;;;;;;;4994210;28;20026;-74
2021/04/16 06:53:14;;;;;;;2.97;1.27;;;;;;;;;;4976752;28;20077;-73
2021/04/16 06:55:40;;;;;;;3.47;1.30;;;;;;;;;;4994048;28;20108;-73
2021/04/16 06:58:10;;;;;;;4.43;1.40;;;;;;;;;;4994077;28;20026;-72
2021/04/16 07:00:56;;;;;;;3.03;1.23;;;;;;;;;;4993935;28;20035;-74
2021/04/16 07:03:27;;;;;;;4.65;1.20;;;;;;;;;;4954032;28;20046;-81
2021/04/16 07:05:54;;;;;;;4.28;1.30;;;;;;;;;;4977309;28;20027;-82
2021/04/16 07:08:26;;;;;;;4.90;1.40;;;;;;;;;;4976959;28;20394;-73
2021/04/16 07:10:54;;;;;;;4.07;1.27;;;;;;;;;;4994449;28;20129;-79
2021/04/16 07:13:29;;;;;;;5.28;1.23;;;;;;;;;;4994050;28;20029;-88
2021/04/16 07:15:55;;;;;;;2.95;1.40;;;;;;;;;;4976728;28;20018;-72
2021/04/16 07:18:25;;;;;;;4.38;1.65;;;;;;;;;;4976668;28;20019;-80
2021/04/16 07:20:51;;;;;;;2.55;1.27;;;;;;;;;;4993465;28;20125;-81
2021/04/16 07:23:17;;;;;;;3.33;1.35;;;;;;;;;;4993421;28;20038;-78
2021/04/16 07:26:01;;;;;;;4.95;1.30;;;;;;;;;;4976282;28;20036;-79
2021/04/16 07:28:41;;;;;;;3.40;1.50;;;;;;;;;;4994074;28;20422;-73
2021/04/16 07:31:27;;;;;;;8.00;1.50;;;;;;;;;;4994026;28;20036;-75
2021/04/16 07:33:54;;;;;;;2.92;1.10;;;;;;;;;;4976522;28;20097;-75
2021/04/16 07:36:20;;;;;;;2.85;1.27;;;;;;;;;;4976192;28;20026;-81
2021/04/16 07:39:01;;;;;;;2.80;1.30;;;;;;;;;;4976225;28;20054;-77
2021/04/16 07:41:29;;;;;;;4.45;1.00;;;;;;;;;;4993554;28;20030;-73
2021/04/16 07:43:57;;;;;;;3.17;1.38;;;;;;;;;;4992755;28;20117;-80
2021/04/16 07:46:26;;;;;;;2.03;1.08;;;;;;;;;;4993162;28;20018;-78
2021/04/16 07:48:52;;;;;;;1.55;0.80;;;;;;;;;;4975986;28;20379;-73
2021/04/16 07:51:30;;;;;;;3.53;1.30;;;;;;;;;;4975397;28;20029;-75
2021/04/16 07:54:10;;;;;;;3.05;1.55;;;;;;;;;;4974422;28;20022;-74
2021/04/16 07:56:36;;;;;;;2.00;1.00;;;;;;;;;;4992989;28;20383;-71
2021/04/16 07:59:05;;;;;;;5.15;1.85;;;;;;;;;;4976148;28;20109;-73
2021/04/16 08:01:37;;;;;;;7.40;1.50;;;;;;;;;;4992687;28;20035;-73
2021/04/16 08:04:04;;;;;;;3.78;1.20;;;;;;;;;;4984071;28;20033;-77
2021/04/16 08:06:43;;;;;;;2.80;0.98;;;;;;;;;;4975214;28;20026;-72
2021/04/16 08:09:12;;;;;;;3.22;1.20;;;;;;;;;;4993078;28;20092;-74
2021/04/16 08:11:39;;;;;;;2.80;1.40;;;;;;;;;;4981383;28;20022;-73
2021/04/16 08:14:09;;;;;;;5.45;1.17;;;;;;;;;;4975388;28;20027;-72
2021/04/16 08:16:43;;;;;;;2.95;1.33;;;;;;;;;;4975740;28;20037;-84
2021/04/16 08:19:09;;;;;;;10.10;1.20;;;;;;;;;;4992888;28;20069;-72
2021/04/16 08:21:38;;;;;;;2.80;1.13;;;;;;;;;;4974875;28;20057;-72
2021/04/16 08:24:04;;;;;;;4.45;1.13;;;;;;;;;;4974802;28;20026;-75
2021/04/16 08:26:31;;;;;;;1.80;0.90;;;;;;;;;;4975685;28;20022;-80
2021/04/16 08:29:00;;;;;;;2.17;1.10;;;;;;;;;;4995492;28;20116;-78
2021/04/16 08:31:28;;;;;;;1.90;0.82;;;;;;;;;;4992474;28;20033;-75
2021/04/16 08:33:59;;;;;;;3.28;1.27;;;;;;;;;;4994443;28;20053;-70
2021/04/16 08:36:34;;;;;;;4.18;1.17;;;;;;;;;;4956545;28;20106;-75
2021/04/16 08:39:01;;;;;;;3.67;1.33;;;;;;;;;;4986485;28;20082;-74
2021/04/16 08:41:31;;;;;;;2.05;1.13;;;;;;;;;;4976836;28;20073;-73
2021/04/16 08:44:02;;;;;;;1.92;1.10;;;;;;;;;;4977382;28;20026;-73
2021/04/16 08:46:28;;;;;;;2.72;1.13;;;;;;;;;;4974018;28;20030;-70
2021/04/16 08:48:55;;;;;;;1.90;0.90;;;;;;;;;;4991997;28;20018;-77
2021/04/16 08:51:27;;;;;;;3.50;1.52;;;;;;;;;;4973575;28;20038;-79
2021/04/16 08:54:14;;;;;;;4.32;1.30;;;;;;;;;;4991862;28;20031;-73
2021/04/16 08:56:46;;;;;;;8.88;1.90;;;;;;;;;;4990239;28;20027;-74
2021/04/16 08:59:15;;;;;;;9.75;2.30;;;;;;;;;;4992572;28;20023;-74
2021/04/16 09:01:46;;;;;;;18.13;2.50;;;;;;;;;;4992351;28;20031;-68
2021/04/16 09:04:24;;;;;;;11.98;2.20;;;;;;;;;;4992133;28;20022;-70
2021/04/16 09:06:55;;;;;;;13.27;2.63;;;;;;;;;;4992224;28;20026;-72
2021/04/16 09:09:40;;;;;;;18.17;3.10;;;;;;;;;;4992244;28;20081;-72
2021/04/16 09:12:06;;;;;;;14.07;2.10;;;;;;;;;;4992147;28;20122;-73
2021/04/16 09:14:32;;;;;;;10.45;2.22;;;;;;;;;;4991987;28;20077;-78
2021/04/16 09:17:03;;;;;;;9.15;2.13;;;;;;;;;;4974528;28;20384;-75
2021/04/16 09:19:29;;;;;;;10.20;2.20;;;;;;;;;;4992492;28;20035;-77
2021/04/16 09:22:04;;;;;;;9.98;1.70;;;;;;;;;;4992156;28;20106;-80
2021/04/16 09:24:42;;;;;;;7.90;1.50;;;;;;;;;;4974925;28;20029;-73
2021/04/16 09:27:16;;;;;;;9.98;2.17;;;;;;;;;;4974618;28;20023;-75
2021/04/16 09:29:43;;;;;;;6.88;1.40;;;;;;;;;;4971582;28;20029;-75
2021/04/16 09:32:27;;;;;;;5.32;1.38;;;;;;;;;;4996540;28;20081;-75
2021/04/16 09:34:54;;;;;;;6.07;1.58;;;;;;;;;;4991921;28;20030;-74
2021/04/16 09:37:29;;;;;;;4.95;1.17;;;;;;;;;;4993326;28;20117;-74
2021/04/16 09:40:14;;;;;;;6.82;1.50;;;;;;;;;;4991128;28;20419;-74
2021/04/16 09:42:40;;;;;;;5.30;1.45;;;;;;;;;;4986978;28;20589;-72
2021/04/16 09:45:11;;;;;;;9.27;1.60;;;;;;;;;;5011109;28;20053;-79
2021/04/16 09:47:40;;;;;;;9.77;2.27;;;;;;;;;;4971952;28;20034;-77
2021/04/16 09:50:18;;;;;;;10.75;2.03;;;;;;;;;;4971848;28;20034;-70
2021/04/16 09:52:46;;;;;;;5.90;1.65;;;;;;;;;;4982485;28;20019;-73
2021/04/16 09:55:31;;;;;;;8.70;1.92;;;;;;;;;;4991660;28;20023;-75
2021/04/16 09:57:57;;;;;;;6.63;1.90;;;;;;;;;;4970859;28;20058;-73
2021/04/16 10:00:39;;;;;;;8.07;1.90;;;;;;;;;;4954431;28;20045;-72
2021/04/16 10:03:20;;;;;;;3.80;1.90;;;;;;;;;;4990953;28;20022;-72
2021/04/16 10:05:46;;;;;;;6.82;1.60;;;;;;;;;;4973960;28;20022;-72
2021/04/16 10:08:19;;;;;;;7.65;2.10;;;;;;;;;;4994137;28;20018;-77
2021/04/16 10:10:45;;;;;;;6.68;1.90;;;;;;;;;;4977588;28;20026;-76
2021/04/16 10:13:22;;;;;;;9.93;2.33;;;;;;;;;;4977730;28;20035;-77
2021/04/16 10:15:50;;;;;;;7.72;1.70;;;;;;;;;;4978007;28;20058;-72
2021/04/16 10:18:33;;;;;;;8.43;2.47;;;;;;;;;;4995575;28;20092;-79
2021/04/16 10:20:59;;;;;;;;;;;;;;;;;;4996608;28;20518;-73
2021/04/16 10:23:30;;;;;;;7.63;2.35;;;;;;;;;;4977607;28;19917;-77
2021/04/16 12:38:32;;;;;;;4.68;2.78;;;;;;;;;;4994876;28;20114;-80
2021/04/16 12:40:59;;;;;;;5.93;2.63;;;;;;;;;;4976993;28;20031;-72
2021/04/16 12:43:25;;;;;;;5.18;2.30;;;;;;;;;;4990586;28;20018;-72
2021/04/16 12:45:53;;;;;;;5.63;2.50;;;;;;;;;;4982968;28;20417;-73
2021/04/16 12:48:20;;;;;;;6.95;2.58;;;;;;;;;;4971653;28;20031;-71
2021/04/16 12:50:46;;;;;;;5.55;2.08;;;;;;;;;;5004570;28;20436;-73
2021/04/16 12:53:12;;;;;;;7.05;2.72;;;;;;;;;;4980371;28;20061;-72
2021/04/16 12:55:38;;;;;;;4.75;2.30;;;;;;;;;;4981959;28;20105;-71
2021/04/16 12:58:06;;;;;;;4.13;2.40;;;;;;;;;;5002256;28;20041;-76
2021/04/16 13:00:41;;;;;;;6.75;2.00;;;;;;;;;;4993365;28;20057;-75
2021/04/16 13:03:08;;;;;;;6.43;2.10;;;;;;;;;;4987997;28;20034;-77
2021/04/16 13:05:35;;;;;;;5.13;2.53;;;;;;;;;;4983665;28;20109;-80
2021/04/16 13:08:02;;;;;;;4.95;2.25;;;;;;;;;;4991109;28;20577;-76
2021/04/16 13:10:28;;;;;;;4.50;2.20;;;;;;;;;;4973590;28;20026;-78
2021/04/16 13:12:54;;;;;;;4.45;2.13;;;;;;;;;;4977411;28;20030;-77
2021/04/16 13:15:21;;;;;;;5.28;1.92;;;;;;;;;;4978026;28;20737;-75
2021/04/16 13:17:52;;;;;;;3.58;1.83;;;;;;;;;;4995508;28;20022;-74
2021/04/16 13:20:19;;;;;;;5.20;2.17;;;;;;;;;;5001211;28;20030;-77
2021/04/16 13:22:46;;;;;;;6.63;2.47;;;;;;;;;;4996396;28;20057;-77
2021/04/16 13:25:14;;;;;;;5.13;2.55;;;;;;;;;;4973092;28;20042;-77
2021/04/16 13:27:40;;;;;;;4.07;2.08;;;;;;;;;;4981452;28;20026;-69
2021/04/16 13:30:08;;;;;;;4.72;2.22;;;;;;;;;;4993652;28;20027;-69
2021/04/16 13:32:36;;;;;;;7.28;1.98;;;;;;;;;;4990847;28;20034;-73
2021/04/16 13:35:03;;;;;;;5.18;2.17;;;;;;;;;;4976370;28;20034;-69
2021/04/16 13:37:32;;;;;;;14.38;2.20;;;;;;;;;;4991735;28;20106;-70
2021/04/16 13:39:59;;;;;;;17.98;2.53;;;;;;;;;;4991801;28;20033;-70
2021/04/16 13:42:25;;;;;;;20.77;2.60;;;;;;;;;;4993608;28;20025;-73
2021/04/16 13:44:51;;;;;;;16.92;2.00;;;;;;;;;;4990343;28;20034;-70
2021/04/16 13:47:23;;;;;;;19.02;3.25;;;;;;;;;;4986298;28;20072;-70
2021/04/16 13:49:49;;;;;;;;;;;;;;;;;;5010303;28;20025;-69
2021/04/16 13:52:15;;;;;;;15.27;4.30;;;;;;;;;;4969344;28;19914;-71
2021/04/16 13:54:43;;;;;;;19.05;2.80;;;;;;;;;;4972914;28;20087;-72
2021/04/16 13:57:10;;;;;;;18.52;2.38;;;;;;;;;;4994514;28;20042;-71
2021/04/16 13:59:36;;;;;;;15.05;2.25;;;;;;;;;;4973284;28;20042;-77
2021/04/16 14:02:03;;;;;;;6.78;2.83;;;;;;;;;;4969582;28;20038;-73
2021/04/16 14:04:33;;;;;;;15.75;2.50;;;;;;;;;;4973906;28;20038;-71
2021/04/16 14:07:00;;;;;;;16.45;2.85;;;;;;;;;;4991043;28;20072;-77
2021/04/16 14:09:28;;;;;;;11.75;3.10;;;;;;;;;;4975283;28;20029;-76
2021/04/16 14:11:54;;;;;;;8.90;2.53;;;;;;;;;;5000910;28;20105;-75
2021/04/16 14:14:25;;;;;;;13.75;2.70;;;;;;;;;;4973072;28;20046;-75
2021/04/16 14:16:56;;;;;;;9.45;2.38;;;;;;;;;;4973540;28;20177;-71
2021/04/16 14:19:23;;;;;;;5.50;2.03;;;;;;;;;;4990802;28;20539;-72
2021/04/16 14:21:56;;;;;;;9.40;2.33;;;;;;;;;;4990748;28;20050;-72
2021/04/16 14:24:23;;;;;;;12.80;2.70;;;;;;;;;;4990799;28;20018;-73
2021/04/16 14:26:50;;;;;;;9.18;2.28;;;;;;;;;;4996327;28;20446;-78
2021/04/16 14:29:17;;;;;;;16.40;2.20;;;;;;;;;;4981503;28;20034;-74
2021/04/16 14:31:43;;;;;;;5.97;2.38;;;;;;;;;;4991009;28;20029;-72
2021/04/16 14:34:12;;;;;;;7.15;2.55;;;;;;;;;;4990981;28;20030;-73
2021/04/16 14:36:38;;;;;;;14.70;2.63;;;;;;;;;;4973822;28;20031;-74
2021/04/16 14:39:08;;;;;;;7.07;2.05;;;;;;;;;;4973957;28;20514;-74
2021/04/16 14:41:35;;;;;;;10.88;2.78;;;;;;;;;;4973428;28;20070;-72
2021/04/16 14:44:02;;;;;;;6.57;2.28;;;;;;;;;;4991252;28;20030;-70
2021/04/16 14:46:28;;;;;;;8.30;2.30;;;;;;;;;;4988953;28;20562;-71
2021/04/16 14:48:54;;;;;;;8.57;2.38;;;;;;;;;;4988209;28;20030;-72
2021/04/16 14:51:23;;;;;;;6.20;2.60;;;;;;;;;;5001260;28;20097;-74
2021/04/16 14:53:52;;;;;;;5.00;2.63;;;;;;;;;;4983013;28;20018;-80
2021/04/16 14:56:19;;;;;;;8.50;2.40;;;;;;;;;;4999929;28;20106;-76
2021/04/16 14:58:57;;;;;;;9.60;2.70;;;;;;;;;;4992603;28;20026;-77
2021/04/16 15:01:23;;;;;;;8.20;2.80;;;;;;;;;;4977059;28;20034;-77
2021/04/16 15:03:49;;;;;;;8.73;2.60;;;;;;;;;;4976791;28;20018;-77
2021/04/16 15:06:21;;;;;;;5.75;2.70;;;;;;;;;;4993972;28;20030;-73
2021/04/16 15:08:52;;;;;;;8.68;2.72;;;;;;;;;;4993898;28;20050;-76
2021/04/16 15:11:20;;;;;;;21.83;3.40;;;;;;;;;;4976739;28;20038;-73
2021/04/16 15:13:46;;;;;;;5.18;2.15;;;;;;;;;;4993740;28;20023;-74
2021/04/16 15:16:15;;;;;;;6.00;2.10;;;;;;;;;;4987514;28;20030;-75
2021/04/16 15:18:41;;;;;;;8.95;3.13;;;;;;;;;;4993956;28;20034;-72
2021/04/16 15:21:10;;;;;;;17.17;3.28;;;;;;;;;;4976615;28;20687;-73
2021/04/16 15:23:36;;;;;;;8.00;2.88;;;;;;;;;;4993649;28;20062;-73
2021/04/16 15:26:04;;;;;;;12.20;2.70;;;;;;;;;;4976122;28;20549;-78
2021/04/16 15:28:44;;;;;;;13.40;2.80;;;;;;;;;;4993616;28;20396;-72
2021/04/16 15:31:15;;;;;;;7.78;2.70;;;;;;;;;;4994283;28;20034;-69
2021/04/16 15:47:21;;;;;;;9.05;2.35;;;;;;;;;;5003355;28;20041;-75
2021/04/16 15:49:47;;;;;;;5.20;2.40;;;;;;;;;;4976751;28;20581;-74
2021/04/16 15:52:13;;;;;;;5.22;2.45;;;;;;;;;;4974369;28;20144;-74
2021/04/16 15:54:39;;;;;;;7.00;2.55;;;;;;;;;;4993557;28;20034;-74
2021/04/16 15:57:05;;;;;;;11.68;3.00;;;;;;;;;;4993222;28;20114;-71
2021/04/16 15:59:34;;;;;;;8.50;2.92;;;;;;;;;;4975649;28;20754;-71
2021/04/16 16:02:02;;;;;;;9.20;3.10;;;;;;;;;;4993233;28;20034;-70
2021/04/16 16:04:29;;;;;;;6.65;2.40;;;;;;;;;;4998870;28;20073;-67
2021/04/16 16:06:55;;;;;;;8.27;2.65;;;;;;;;;;4983218;28;20037;-70
2021/04/16 16:09:21;;;;;;;7.45;2.80;;;;;;;;;;4977362;28;20117;-70
2021/04/16 16:11:51;;;;;;;8.07;2.40;;;;;;;;;;4991913;28;20392;-70
2021/04/16 16:14:25;;;;;;;8.00;2.40;;;;;;;;;;4972093;28;20114;-71
2021/04/16 16:16:51;;;;;;;7.38;2.40;;;;;;;;;;4992540;28;20042;-73
2021/04/16 16:19:17;;;;;;;5.80;2.92;;;;;;;;;;4994391;28;20022;-70
2021/04/16 16:21:44;;;;;;;8.93;2.80;;;;;;;;;;4982912;28;20042;-71
2021/04/16 16:24:10;;;;;;;10.40;2.95;;;;;;;;;;5001411;28;20054;-68
2021/04/16 16:26:38;;;;;;;9.05;3.00;;;;;;;;;;5004472;28;20022;-68
2021/04/16 16:29:08;;;;;;;10.18;3.03;;;;;;;;;;5001819;28;20029;-68
2021/04/16 16:31:34;;;;;;;16.48;3.35;;;;;;;;;;5002864;28;20025;-68
2021/04/16 16:34:00;;;;;;;8.48;2.85;;;;;;;;;;5003482;28;20033;-69
2021/04/16 16:36:27;;;;;;;5.53;2.95;;;;;;;;;;4984502;28;20029;-71
2021/04/16 16:38:53;;;;;;;6.30;2.95;;;;;;;;;;5002995;28;20392;-71
2021/04/16 16:41:19;;;;;;;6.20;2.42;;;;;;;;;;5003464;28;20034;-73
2021/04/16 16:43:46;;;;;;;8.02;2.95;;;;;;;;;;5001942;28;20021;-74
2021/04/16 16:46:18;;;;;;;7.90;3.15;;;;;;;;;;4984143;28;20026;-73
2021/04/16 16:48:45;;;;;;;8.77;3.05;;;;;;;;;;5000770;28;20033;-72
2021/04/16 16:51:12;;;;;;;5.15;2.72;;;;;;;;;;5002470;28;20025;-70
2021/04/16 16:53:38;;;;;;;9.65;2.67;;;;;;;;;;5008787;28;20033;-70
2021/04/16 16:56:05;;;;;;;13.40;2.15;;;;;;;;;;4983383;28;20034;-74
2021/04/16 16:58:35;;;;;;;11.90;2.03;;;;;;;;;;4992992;28;20046;-71
2021/04/16 17:01:04;;;;;;;15.23;2.35;;;;;;;;;;4975705;28;20049;-71
2021/04/16 17:03:30;;;;;;;10.00;3.33;;;;;;;;;;4995482;28;20026;-73
2021/04/16 17:05:56;;;;;;;10.85;2.80;;;;;;;;;;4992166;28;20058;-71
2021/04/16 17:08:22;;;;;;;18.05;3.00;;;;;;;;;;4990455;28;20019;-71
2021/04/16 17:10:49;;;;;;;6.57;2.40;;;;;;;;;;4979441;28;20149;-73
2021/04/16 17:13:15;;;;;;;8.27;2.03;;;;;;;;;;4972037;28;20070;-71
2021/04/16 17:15:43;;;;;;;11.32;2.65;;;;;;;;;;4956057;28;20093;-71